createdAt,value
2022-09-12T00:01:47.177Z,3.30
2022-09-12T00:04:34.193Z,2.87
2022-09-12T00:07:21.140Z,2.20
2022-09-12T00:10:08.093Z,3.33
2022-09-12T00:12:55.019Z,3.27
2022-09-12T00:15:41.853Z,4.53
2022-09-12T00:18:32.260Z,2.23
2022-09-12T00:21:23.678Z,3.30
2022-09-12T00:24:11.080Z,3.20
2022-09-12T00:26:58.025Z,2.53
2022-09-12T00:29:45.082Z,2.93
2022-09-12T00:32:31.997Z,2.20
2022-09-12T00:35:18.980Z,3.73
2022-09-12T00:38:05.820Z,2.63
2022-09-12T00:40:53.066Z,2.40
2022-09-12T00:44:01.912Z,3.77
2022-09-12T00:47:07.523Z,2.13
2022-09-12T00:50:07.373Z,2.97
2022-09-12T00:52:57.919Z,2.30
2022-09-12T00:55:50.700Z,3.17
2022-09-12T00:58:45.862Z,2.63
2022-09-12T01:01:33.102Z,2.33
2022-09-12T01:04:21.944Z,3.37
2022-09-12T01:07:10.794Z,3.20
2022-09-12T01:09:59.864Z,2.23
2022-09-12T01:12:46.961Z,2.70
2022-09-12T01:15:34.072Z,2.50
2022-09-12T01:18:30.441Z,2.50
2022-09-12T01:21:26.521Z,2.63
2022-09-12T01:24:35.417Z,3.00
2022-09-12T01:27:34.559Z,2.40
2022-09-12T01:30:39.268Z,3.13
2022-09-12T01:33:44.448Z,2.87
2022-09-12T01:36:43.452Z,2.23
2022-09-12T01:39:48.621Z,2.57
2022-09-12T01:42:45.922Z,3.43
2022-09-12T01:45:48.721Z,2.90
2022-09-12T01:48:38.937Z,3.40
2022-09-12T01:52:04.296Z,3.37
2022-09-12T01:55:07.690Z,2.97
2022-09-12T01:58:09.417Z,2.33
2022-09-12T02:01:04.979Z,2.67
2022-09-12T02:03:59.491Z,2.23
2022-09-12T02:06:55.630Z,3.57
2022-09-12T02:09:51.978Z,2.20
2022-09-12T02:12:44.857Z,3.53
2022-09-12T02:15:34.715Z,2.47
2022-09-12T02:18:25.597Z,2.23
2022-09-12T02:21:14.352Z,3.53
2022-09-12T02:24:06.760Z,2.30
2022-09-12T02:26:56.945Z,2.43
2022-09-12T02:29:43.936Z,3.07
2022-09-12T02:32:55.133Z,2.27
2022-09-12T02:35:41.920Z,2.63
2022-09-12T02:38:43.295Z,2.73
2022-09-12T02:41:32.200Z,2.57
2022-09-12T02:44:19.260Z,3.80
2022-09-12T02:47:14.147Z,3.27
2022-09-12T02:50:01.249Z,2.23
2022-09-12T02:52:49.515Z,3.00
2022-09-12T02:55:36.648Z,3.43
2022-09-12T02:58:28.724Z,3.30
2022-09-12T03:01:21.820Z,2.30
2022-09-12T03:04:29.948Z,3.27
2022-09-12T03:07:25.695Z,2.00
2022-09-12T03:10:22.875Z,2.60
2022-09-12T03:13:20.885Z,2.53
2022-09-12T03:16:19.881Z,2.47
2022-09-12T03:19:09.228Z,2.20
2022-09-12T03:21:54.695Z,2.07
2022-09-12T03:24:38.314Z,2.57
2022-09-12T03:27:10.579Z,3.43
2022-09-12T03:29:39.008Z,3.43
2022-09-12T03:32:06.021Z,2.40
2022-09-12T03:34:33.519Z,3.07
2022-09-12T03:37:00.524Z,2.80
2022-09-12T03:39:28.282Z,2.93
2022-09-12T03:41:55.439Z,3.50
2022-09-12T03:44:23.371Z,1.97
2022-09-12T03:47:11.459Z,2.27
2022-09-12T03:49:58.431Z,3.10
2022-09-12T03:52:45.399Z,3.17
2022-09-12T03:55:32.298Z,3.30
2022-09-12T03:57:59.349Z,4.97
2022-09-12T04:00:26.389Z,4.37
2022-09-12T04:02:55.635Z,6.13
2022-09-12T04:05:23.424Z,3.97
2022-09-12T04:07:50.441Z,4.83
2022-09-12T04:10:37.504Z,22.20
2022-09-12T04:13:24.454Z,17.10
2022-09-12T04:16:21.451Z,11.97
2022-09-12T04:19:08.286Z,7.03
2022-09-12T04:21:55.322Z,7.40
2022-09-12T04:24:42.348Z,4.53
2022-09-12T04:27:29.279Z,3.60
2022-09-12T04:30:16.408Z,4.43
2022-09-12T04:33:07.915Z,6.00
2022-09-12T04:35:56.014Z,1.90
2022-09-12T04:38:43.008Z,2.37
2022-09-12T04:41:32.057Z,1.97
2022-09-12T04:44:21.944Z,2.00
2022-09-12T04:47:08.839Z,3.47
2022-09-12T04:49:55.828Z,2.13
2022-09-12T04:52:42.641Z,2.03
2022-09-12T04:55:30.036Z,2.60
2022-09-12T04:58:16.941Z,3.27
2022-09-12T05:01:03.971Z,3.03
2022-09-12T05:03:50.833Z,2.47
2022-09-12T05:06:41.096Z,2.23
2022-09-12T05:09:30.680Z,3.30
2022-09-12T05:12:17.844Z,2.93
2022-09-12T05:15:04.842Z,2.87
2022-09-12T05:17:51.999Z,1.90
2022-09-12T05:20:38.903Z,2.07
2022-09-12T05:23:25.847Z,2.43
2022-09-12T05:26:13.924Z,2.00
2022-09-12T05:29:01.426Z,2.33
2022-09-12T05:31:48.932Z,3.90
2022-09-12T05:34:35.720Z,2.57
2022-09-12T05:37:22.712Z,1.80
2022-09-12T05:40:09.594Z,1.77
2022-09-12T05:42:56.634Z,3.30
2022-09-12T05:45:43.751Z,2.50
2022-09-12T05:48:30.719Z,1.93
2022-09-12T05:51:44.843Z,2.03
2022-09-12T05:54:34.386Z,2.97
2022-09-12T05:57:21.304Z,2.10
2022-09-12T06:00:08.186Z,1.90
2022-09-12T06:02:58.829Z,2.50
2022-09-12T06:05:50.480Z,6.50
2022-09-12T06:08:37.881Z,2.40
2022-09-12T06:11:26.291Z,2.87
2022-09-12T06:14:13.864Z,1.90
2022-09-12T06:17:01.105Z,5.27
2022-09-12T06:19:48.135Z,4.17
2022-09-12T06:22:35.169Z,2.90
2022-09-12T06:25:22.142Z,3.87
2022-09-12T06:28:09.011Z,4.53
2022-09-12T06:30:56.159Z,2.67
2022-09-12T06:33:43.131Z,2.17
2022-09-12T06:36:35.261Z,2.53
2022-09-12T06:39:25.126Z,2.17
2022-09-12T06:42:12.902Z,2.93
2022-09-12T06:44:59.862Z,4.47
2022-09-12T06:47:46.798Z,3.13
2022-09-12T06:50:33.791Z,2.20
2022-09-12T06:53:20.654Z,2.70
2022-09-12T06:55:48.244Z,1.80
2022-09-12T06:58:15.064Z,3.00
2022-09-12T07:00:42.248Z,3.43
2022-09-12T07:03:09.736Z,3.10
2022-09-12T07:05:37.440Z,5.73
2022-09-12T07:08:04.470Z,1.83
2022-09-12T07:10:31.944Z,2.00
2022-09-12T07:12:59.163Z,2.60
2022-09-12T07:15:26.981Z,2.80
2022-09-12T07:17:57.434Z,3.50
2022-09-12T07:20:24.391Z,1.73
2022-09-12T07:22:51.295Z,1.80
2022-09-12T07:25:18.222Z,3.10
2022-09-12T07:27:49.284Z,4.13
2022-09-12T07:30:18.242Z,2.00
2022-09-12T07:32:45.180Z,2.43
2022-09-12T07:35:32.721Z,2.00
2022-09-12T07:38:19.575Z,3.43
2022-09-12T07:41:06.630Z,1.83
2022-09-12T07:43:53.436Z,3.10
2022-09-12T07:46:40.775Z,2.17
2022-09-12T07:49:27.702Z,1.90
2022-09-12T07:52:15.038Z,1.87
2022-09-12T07:55:02.035Z,2.00
2022-09-12T07:57:50.466Z,1.83
2022-09-12T08:00:38.533Z,2.33
2022-09-12T08:03:25.663Z,3.43
2022-09-12T08:06:12.521Z,1.63
2022-09-12T08:09:00.038Z,2.30
2022-09-12T08:11:48.793Z,1.77
2022-09-12T08:14:35.786Z,2.00
2022-09-12T08:17:22.663Z,1.90
2022-09-12T08:20:09.760Z,1.70
2022-09-12T08:22:56.591Z,2.03
2022-09-12T08:25:43.564Z,2.83
2022-09-12T08:28:30.395Z,2.27
2022-09-12T08:31:27.478Z,3.57
2022-09-12T08:33:58.180Z,2.27
2022-09-12T08:36:47.492Z,1.80
2022-09-12T08:39:37.426Z,2.00
2022-09-12T08:42:26.364Z,2.07
2022-09-12T08:45:37.373Z,1.70
2022-09-12T08:48:25.967Z,2.83
2022-09-12T08:51:12.871Z,2.07
2022-09-12T08:54:01.226Z,1.70
2022-09-12T08:56:51.872Z,3.80
2022-09-12T08:59:38.863Z,2.40
2022-09-12T09:02:55.308Z,2.17
2022-09-12T09:06:04.753Z,1.87
2022-09-12T09:08:47.949Z,1.67
2022-09-12T09:11:54.135Z,2.70
2022-09-12T09:15:08.537Z,2.97
2022-09-12T09:18:03.105Z,2.23
2022-09-12T09:21:06.688Z,1.90
2022-09-12T09:24:03.030Z,1.90
2022-09-12T09:27:01.096Z,2.17
2022-09-12T09:29:54.344Z,1.43
2022-09-12T09:32:52.789Z,2.27
2022-09-12T09:35:49.656Z,2.37
2022-09-12T09:39:07.756Z,5.30
2022-09-12T09:42:03.831Z,2.73
2022-09-12T09:44:51.156Z,1.50
2022-09-12T09:47:38.708Z,1.70
2022-09-12T09:50:25.752Z,2.33
2022-09-12T09:53:16.855Z,2.27
2022-09-12T09:56:05.820Z,3.07
2022-09-12T09:58:54.401Z,1.77
2022-09-12T10:01:41.504Z,2.03
2022-09-12T10:04:59.222Z,1.60
2022-09-12T10:07:47.067Z,2.20
2022-09-12T10:10:35.480Z,3.77
2022-09-12T10:13:41.892Z,2.47
2022-09-12T10:16:42.490Z,1.50
2022-09-12T10:20:19.855Z,1.70
2022-09-12T10:23:07.811Z,1.47
2022-09-12T10:25:54.699Z,2.47
2022-09-12T10:28:57.140Z,2.00
2022-09-12T10:32:00.924Z,1.73
2022-09-12T10:35:06.429Z,1.97
2022-09-12T10:37:59.966Z,1.57
2022-09-12T10:40:59.166Z,2.20
2022-09-12T10:44:02.007Z,1.37
2022-09-12T10:46:49.472Z,1.70
2022-09-12T10:49:48.484Z,3.27
2022-09-12T10:52:43.589Z,1.60
2022-09-12T10:55:36.740Z,2.03
2022-09-12T10:58:32.860Z,1.77
2022-09-12T11:01:13.313Z,1.50
2022-09-12T11:04:28.208Z,1.80
2022-09-12T11:07:40.093Z,2.90
2022-09-12T11:11:21.533Z,1.10
2022-09-12T11:14:29.606Z,1.37
2022-09-12T11:17:25.434Z,1.30
2022-09-12T11:19:59.303Z,1.00
2022-09-12T11:22:52.989Z,1.00
2022-09-12T11:25:20.217Z,1.20
2022-09-12T11:28:22.798Z,0.93
2022-09-12T11:30:55.909Z,0.87
2022-09-12T11:33:42.951Z,0.90
2022-09-12T11:36:25.001Z,2.63
2022-09-12T11:39:17.393Z,1.20
2022-09-12T11:41:58.085Z,0.90
2022-09-12T11:44:38.716Z,1.20
2022-09-12T11:47:14.683Z,1.90
2022-09-12T11:49:47.971Z,1.47
2022-09-12T11:52:19.925Z,1.07
2022-09-12T11:55:05.423Z,1.00
2022-09-12T11:58:05.273Z,1.10
2022-09-12T12:00:36.453Z,0.70
2022-09-12T12:03:28.442Z,1.07
2022-09-12T12:06:21.978Z,1.40
2022-09-12T12:08:50.690Z,0.87
2022-09-12T12:11:55.344Z,1.03
2022-09-12T12:14:50.911Z,1.80
2022-09-12T12:17:42.268Z,0.90
2022-09-12T12:20:37.397Z,0.83
2022-09-12T12:23:24.604Z,1.47
2022-09-12T12:26:14.788Z,2.10
2022-09-12T12:29:01.749Z,0.63
2022-09-12T12:31:48.583Z,0.67
2022-09-12T12:34:46.712Z,1.70
2022-09-12T12:37:39.804Z,0.70
2022-09-12T12:40:41.997Z,0.60
2022-09-12T12:43:49.742Z,1.00
2022-09-12T12:46:44.775Z,3.80
2022-09-12T12:49:41.099Z,0.60
2022-09-12T12:52:37.761Z,1.20
2022-09-12T12:55:25.145Z,0.90
2022-09-12T12:58:20.339Z,1.27
2022-09-12T13:01:25.269Z,0.70
2022-09-12T13:04:20.660Z,0.87
2022-09-12T13:07:21.856Z,2.53
2022-09-12T13:10:11.929Z,3.80
2022-09-12T13:13:06.932Z,0.77
2022-09-12T13:15:56.956Z,1.73
2022-09-12T13:19:06.243Z,2.83
2022-09-12T13:21:55.393Z,1.40
2022-09-12T13:24:43.487Z,1.07
2022-09-12T13:27:42.225Z,1.27
2022-09-12T13:34:06.368Z,3.90
2022-09-12T13:37:29.769Z,2.17
2022-09-12T13:40:38.145Z,1.20
2022-09-12T13:43:27.698Z,1.50
2022-09-12T13:46:14.718Z,0.73
2022-09-12T13:49:01.676Z,1.10
2022-09-12T13:51:36.393Z,1.13
2022-09-12T13:54:05.402Z,0.80
2022-09-12T13:56:32.427Z,2.10
2022-09-12T13:59:01.671Z,2.53
2022-09-12T14:01:40.541Z,1.03
2022-09-12T14:04:38.181Z,1.23
2022-09-12T14:07:25.641Z,2.00
2022-09-12T14:09:58.340Z,1.27
2022-09-12T14:12:32.465Z,1.20
2022-09-12T14:14:59.577Z,1.70
2022-09-12T14:17:55.296Z,1.30
2022-09-12T14:20:43.940Z,1.00
2022-09-12T14:23:52.891Z,2.37
2022-09-12T14:26:39.995Z,2.50
2022-09-12T14:29:28.248Z,1.53
2022-09-12T14:32:25.003Z,1.57
2022-09-12T14:35:47.372Z,1.93
2022-09-12T14:38:37.151Z,1.10
2022-09-12T14:41:29.075Z,1.13
2022-09-12T14:44:20.501Z,1.00
2022-09-12T14:46:48.782Z,1.03
2022-09-12T14:49:21.402Z,1.60
2022-09-12T14:51:51.430Z,1.47
2022-09-12T14:54:27.588Z,1.07
2022-09-12T14:56:55.861Z,1.03
2022-09-12T14:59:48.630Z,1.07
2022-09-12T15:02:41.607Z,1.23
2022-09-12T15:05:28.594Z,1.00
2022-09-12T15:08:20.570Z,1.93
2022-09-12T15:11:07.860Z,1.03
2022-09-12T15:14:00.462Z,1.30
2022-09-12T15:16:47.711Z,1.23
2022-09-12T15:19:34.879Z,1.83
2022-09-12T15:22:22.155Z,2.20
2022-09-12T15:25:09.084Z,1.00
2022-09-12T15:27:56.204Z,0.77
2022-09-12T15:30:43.209Z,0.63
2022-09-12T15:33:31.400Z,1.40
2022-09-12T15:36:18.378Z,0.90
2022-09-12T15:39:06.107Z,0.70
2022-09-12T15:41:55.264Z,0.90
2022-09-12T15:44:42.301Z,1.27
2022-09-12T15:47:32.805Z,2.03
2022-09-12T15:50:19.847Z,1.37
2022-09-12T15:53:06.784Z,1.97
2022-09-12T15:55:53.653Z,0.77
2022-09-12T15:58:57.220Z,0.73
2022-09-12T16:01:45.103Z,0.83
2022-09-12T16:04:43.672Z,1.63
2022-09-12T16:07:30.881Z,0.80
2022-09-12T16:10:17.660Z,1.30
2022-09-12T16:13:05.265Z,1.07
2022-09-12T16:15:52.129Z,0.83
2022-09-12T16:18:39.260Z,0.90
2022-09-12T16:21:26.439Z,2.00
2022-09-12T16:24:13.530Z,0.83
2022-09-12T16:27:01.312Z,1.93
2022-09-12T16:29:48.487Z,1.20
2022-09-12T16:32:35.260Z,1.13
2022-09-12T16:35:22.316Z,1.50
2022-09-12T16:38:09.245Z,1.77
2022-09-12T16:40:56.188Z,1.27
2022-09-12T16:43:42.953Z,1.30
2022-09-12T16:46:19.165Z,0.80
2022-09-12T16:48:52.463Z,0.80
2022-09-12T16:51:27.903Z,1.13
2022-09-12T16:53:55.871Z,0.60
2022-09-12T16:56:23.472Z,1.07
2022-09-12T16:59:10.476Z,1.40
2022-09-12T17:01:58.036Z,1.60
2022-09-12T17:04:45.028Z,0.97
2022-09-12T17:07:32.332Z,2.20
2022-09-12T17:10:19.283Z,1.53
2022-09-12T17:13:06.082Z,0.80
2022-09-12T17:15:53.075Z,0.77
2022-09-12T17:18:40.132Z,1.10
2022-09-12T17:21:28.917Z,0.90
2022-09-12T17:24:15.958Z,1.87
2022-09-12T17:27:03.395Z,3.13
2022-09-12T17:29:50.404Z,1.60
2022-09-12T17:32:37.367Z,0.80
2022-09-12T17:35:24.480Z,1.17
2022-09-12T17:38:15.438Z,0.83
2022-09-12T17:40:59.441Z,2.33
2022-09-12T17:43:27.096Z,1.27
2022-09-12T17:45:57.493Z,2.93
2022-09-12T17:48:44.746Z,1.73
2022-09-12T17:51:34.452Z,1.77
2022-09-12T17:54:27.050Z,2.17
2022-09-12T17:56:55.597Z,1.20
2022-09-12T17:59:24.779Z,1.10
2022-09-12T18:02:10.305Z,1.33
2022-09-12T18:04:37.481Z,0.97
2022-09-12T18:07:05.037Z,1.20
2022-09-12T18:09:52.053Z,1.13
2022-09-12T18:12:39.007Z,2.37
2022-09-12T18:15:26.600Z,2.17
2022-09-12T18:18:13.575Z,1.27
2022-09-12T18:21:10.168Z,1.03
2022-09-12T18:23:57.643Z,1.40
2022-09-12T18:26:46.183Z,2.10
2022-09-12T18:29:33.696Z,1.67
2022-09-12T18:32:20.813Z,1.93
2022-09-12T18:35:07.812Z,2.90
2022-09-12T18:37:54.824Z,2.23
2022-09-12T18:40:41.810Z,2.23
2022-09-12T18:43:28.780Z,4.40
2022-09-12T18:46:15.842Z,2.73
2022-09-12T18:49:03.569Z,3.30
2022-09-12T18:51:55.722Z,3.30
2022-09-12T18:54:42.708Z,3.03
2022-09-12T18:57:29.875Z,3.30
2022-09-12T19:00:16.825Z,5.17
2022-09-12T19:03:03.696Z,3.97
2022-09-12T19:05:50.711Z,3.97
2022-09-12T19:08:37.608Z,6.60
2022-09-12T19:11:24.963Z,4.90
2022-09-12T19:14:13.112Z,6.97
2022-09-12T19:17:00.108Z,5.50
2022-09-12T19:19:47.019Z,7.97
2022-09-12T19:22:33.980Z,6.37
2022-09-12T19:25:00.900Z,5.07
2022-09-12T19:27:48.131Z,5.33
2022-09-12T19:30:35.057Z,6.77
2022-09-12T19:33:21.940Z,5.67
2022-09-12T19:36:13.737Z,4.73
2022-09-12T19:39:09.123Z,5.70
2022-09-12T19:41:56.380Z,6.47
2022-09-12T19:44:43.377Z,3.90
2022-09-12T19:47:30.344Z,4.70
2022-09-12T19:50:17.565Z,6.00
2022-09-12T19:53:04.637Z,5.10
2022-09-12T19:55:51.611Z,4.03
2022-09-12T19:58:38.455Z,5.37
2022-09-12T20:01:30.597Z,5.73
2022-09-12T20:04:18.634Z,6.90
2022-09-12T20:07:05.505Z,4.57
2022-09-12T20:09:52.349Z,9.57
2022-09-12T20:12:39.363Z,4.97
2022-09-12T20:15:27.384Z,5.67
2022-09-12T20:18:15.757Z,3.50
2022-09-12T20:21:02.613Z,5.07
2022-09-12T20:23:49.585Z,5.53
2022-09-12T20:26:36.960Z,6.00
2022-09-12T20:29:25.641Z,4.73
2022-09-12T20:32:12.608Z,3.90
2022-09-12T20:34:59.526Z,3.90
2022-09-12T20:37:46.373Z,4.07
2022-09-12T20:40:33.185Z,5.77
2022-09-12T20:43:20.022Z,5.87
2022-09-12T20:46:06.899Z,5.23
2022-09-12T20:48:53.775Z,4.53
2022-09-12T20:51:42.084Z,5.33
2022-09-12T20:54:30.120Z,4.60
2022-09-12T20:57:17.196Z,4.20
2022-09-12T21:00:03.987Z,3.30
2022-09-12T21:02:51.465Z,5.80
2022-09-12T21:05:38.403Z,4.50
2022-09-12T21:08:25.707Z,4.10
2022-09-12T21:11:12.560Z,5.57
2022-09-12T21:14:00.176Z,2.37
2022-09-12T21:16:47.197Z,6.50
2022-09-12T21:19:34.276Z,3.57
2022-09-12T21:22:21.060Z,4.73
2022-09-12T21:25:07.983Z,5.07
2022-09-12T21:27:54.787Z,3.57
2022-09-12T21:30:42.104Z,3.73
2022-09-12T21:33:29.628Z,5.40
2022-09-12T21:36:22.042Z,7.83
2022-09-12T21:39:08.871Z,5.33
2022-09-12T21:41:56.009Z,2.83
2022-09-12T21:44:42.991Z,5.10
2022-09-12T21:47:29.973Z,4.63
2022-09-12T21:50:16.792Z,3.03
2022-09-12T21:53:04.649Z,5.70
2022-09-12T21:55:32.308Z,5.67
2022-09-12T21:57:59.323Z,3.20
2022-09-12T22:00:26.444Z,6.00
2022-09-12T22:02:53.799Z,5.13
2022-09-12T22:05:21.373Z,3.47
2022-09-12T22:07:48.491Z,2.10
2022-09-12T22:10:15.544Z,2.97
2022-09-12T22:12:46.175Z,4.67
2022-09-12T22:15:38.747Z,4.83
2022-09-12T22:18:01.283Z,2.57
2022-09-12T22:20:28.758Z,3.77
2022-09-12T22:23:14.073Z,4.93
2022-09-12T22:25:41.227Z,3.47
2022-09-12T22:28:08.077Z,3.77
2022-09-12T22:30:35.467Z,5.47
2022-09-12T22:33:02.670Z,5.10
2022-09-12T22:35:29.589Z,6.03
2022-09-12T22:37:56.535Z,4.73
2022-09-12T22:40:23.679Z,5.13
2022-09-12T22:42:54.050Z,3.67
2022-09-12T22:45:21.045Z,4.70
2022-09-12T22:47:48.005Z,4.80
2022-09-12T22:50:14.915Z,5.77
2022-09-12T22:52:42.366Z,2.87
2022-09-12T22:55:09.954Z,2.70
2022-09-12T22:57:37.455Z,6.17
2022-09-12T23:00:08.592Z,3.87
2022-09-12T23:02:35.588Z,4.63
2022-09-12T23:05:02.737Z,3.33
2022-09-12T23:07:29.739Z,5.17
2022-09-12T23:09:57.033Z,3.57
2022-09-12T23:12:24.330Z,3.80
2022-09-12T23:14:51.403Z,4.83
2022-09-12T23:17:38.316Z,5.33
2022-09-12T23:20:25.636Z,2.23
2022-09-12T23:23:12.724Z,5.97
2022-09-12T23:25:59.762Z,4.33
2022-09-12T23:28:46.729Z,2.77
2022-09-12T23:31:33.837Z,2.90
2022-09-12T23:34:23.745Z,3.07
2022-09-12T23:37:10.547Z,3.80
2022-09-12T23:39:57.621Z,2.63
2022-09-12T23:42:44.736Z,4.70
2022-09-12T23:45:31.827Z,3.70
2022-09-12T23:48:18.875Z,4.10
2022-09-12T23:51:07.721Z,5.07
2022-09-12T23:53:55.047Z,5.93
2022-09-12T23:56:42.097Z,7.00
2022-09-12T23:59:29.012Z,6.50
